Time;durP1;ratioP1;P1;durP2;ratioP2;P2;SDS_P1;SDS_P2;PMS_P1;PMS_P2;Temp;Humidity;BMP_temperature;BMP_pressure;BME280_temperature;BME280_humidity;BME280_pressure;Samples;Min_cycle;Max_cycle;Signal;HPM_P1;HPM_P2
2023/07/01 00:02:13;;;;;;;;;2.50;2.50;;;;;;;;5058810;28;8791;-87
2023/07/01 00:04:43;;;;;;;;;1.60;1.60;;;;;;;;5056022;28;8869;-87
2023/07/01 00:07:11;;;;;;;;;4.50;3.25;;;;;;;;5051735;28;8976;-88
2023/07/01 00:09:38;;;;;;;;;2.00;2.00;;;;;;;;5050121;28;8865;-88
2023/07/01 00:12:06;;;;;;;;;1.75;1.75;;;;;;;;5051409;28;8972;-87
2023/07/01 00:14:34;;;;;;;;;2.25;2.25;;;;;;;;5049877;28;8924;-87
2023/07/01 00:17:03;;;;;;;;;2.75;2.75;;;;;;;;5055824;28;8858;-86
2023/07/01 00:19:30;;;;;;;;;3.25;2.25;;;;;;;;5061787;28;8865;-85
2023/07/01 00:22:01;;;;;;;;;2.75;2.75;;;;;;;;5051272;28;8876;-85
2023/07/01 00:24:31;;;;;;;;;3.00;3.00;;;;;;;;5066976;28;8847;-85
2023/07/01 00:27:01;;;;;;;;;3.00;3.00;;;;;;;;5052476;28;8858;-87
2023/07/01 00:29:28;;;;;;;;;2.50;2.50;;;;;;;;5053157;28;8841;-87
2023/07/01 00:31:56;;;;;;;;;2.00;2.00;;;;;;;;5053780;28;8906;-87
2023/07/01 00:34:23;;;;;;;;;3.25;2.00;;;;;;;;5052385;28;8861;-87
2023/07/01 00:36:50;;;;;;;;;1.50;1.50;;;;;;;;5052824;28;8865;-86
2023/07/01 00:39:19;;;;;;;;;1.00;1.00;;;;;;;;5082063;28;8867;-88
2023/07/01 00:41:53;;;;;;;;;2.00;2.00;;;;;;;;5052744;28;8860;-86
2023/07/01 00:44:22;;;;;;;;;4.00;2.25;;;;;;;;5061627;28;8855;-90
2023/07/01 00:46:49;;;;;;;;;2.00;1.00;;;;;;;;5053545;28;8984;-87
2023/07/01 00:49:16;;;;;;;;;1.00;1.00;;;;;;;;5062067;28;8859;-87
2023/07/01 00:51:45;;;;;;;;;2.00;1.50;;;;;;;;5060509;28;8892;-87
2023/07/01 00:54:14;;;;;;;;;1.00;1.00;;;;;;;;5054840;28;8865;-87
2023/07/01 00:56:43;;;;;;;;;2.25;2.25;;;;;;;;5059732;28;8865;-87
2023/07/01 00:59:10;;;;;;;;;2.00;2.00;;;;;;;;5070626;28;8876;-88
2023/07/01 01:01:41;;;;;;;;;1.00;1.00;;;;;;;;5057046;28;8829;-87
2023/07/01 01:04:13;;;;;;;;;1.00;1.00;;;;;;;;5053189;28;8853;-87
2023/07/01 01:06:45;;;;;;;;;0.50;0.50;;;;;;;;5052819;28;8862;-87
2023/07/01 01:09:20;;;;;;;;;2.75;2.00;;;;;;;;5053893;28;8901;-88
2023/07/01 01:11:49;;;;;;;;;1.75;1.75;;;;;;;;5056095;28;8842;-88
2023/07/01 01:14:18;;;;;;;;;0.75;0.75;;;;;;;;5040058;28;8947;-88
2023/07/01 01:16:45;;;;;;;;;2.75;1.00;;;;;;;;5056990;28;8861;-87
2023/07/01 01:19:20;;;;;;;;;2.25;2.25;;;;;;;;5064393;28;8862;-88
2023/07/01 01:21:51;;;;;;;;;4.75;2.00;;;;;;;;5057429;28;8854;-89
2023/07/01 01:24:22;;;;;;;;;1.50;1.50;;;;;;;;5063510;28;8849;-89
2023/07/01 01:26:53;;;;;;;;;2.50;2.50;;;;;;;;5060565;28;8854;-90
2023/07/01 01:29:22;;;;;;;;;2.00;2.00;;;;;;;;5064031;28;8855;-87
2023/07/01 01:31:49;;;;;;;;;2.25;2.25;;;;;;;;5053611;28;8925;-87
2023/07/01 01:34:16;;;;;;;;;1.50;1.50;;;;;;;;5066006;28;9570;-86
2023/07/01 01:36:48;;;;;;;;;1.50;1.50;;;;;;;;5055463;28;8844;-87
2023/07/01 01:39:23;;;;;;;;;2.50;2.50;;;;;;;;5065030;28;8854;-86
2023/07/01 01:41:56;;;;;;;;;0.25;0.25;;;;;;;;5039857;28;8837;-88
2023/07/01 01:44:30;;;;;;;;;4.50;4.50;;;;;;;;5043547;28;8935;-86
2023/07/01 01:47:01;;;;;;;;;4.00;4.00;;;;;;;;5052021;28;8866;-86
2023/07/01 01:49:29;;;;;;;;;4.75;4.75;;;;;;;;5052485;28;8885;-86
2023/07/01 01:51:59;;;;;;;;;3.50;3.50;;;;;;;;5058863;28;8863;-85
2023/07/01 01:54:30;;;;;;;;;4.75;4.75;;;;;;;;5054070;28;8846;-85
2023/07/01 01:56:57;;;;;;;;;3.75;3.75;;;;;;;;5055630;28;9001;-86
2023/07/01 01:59:26;;;;;;;;;4.00;4.00;;;;;;;;5056436;28;8861;-84
2023/07/01 02:01:54;;;;;;;;;5.00;5.00;;;;;;;;5054336;28;8810;-85
2023/07/01 02:04:21;;;;;;;;;4.00;4.00;;;;;;;;5052049;28;8910;-84
2023/07/01 02:06:49;;;;;;;;;4.25;4.25;;;;;;;;5060138;28;8857;-86
2023/07/01 02:09:16;;;;;;;;;5.75;5.75;;;;;;;;5054709;28;9025;-86
2023/07/01 02:11:44;;;;;;;;;7.25;7.25;;;;;;;;5052602;28;8859;-85
2023/07/01 02:14:15;;;;;;;;;5.75;5.75;;;;;;;;5050659;28;8885;-86
2023/07/01 02:16:43;;;;;;;;;5.50;5.50;;;;;;;;5051481;28;8869;-85
2023/07/01 02:19:11;;;;;;;;;4.00;4.00;;;;;;;;5057545;28;8879;-85
2023/07/01 02:21:43;;;;;;;;;6.75;6.75;;;;;;;;5050975;28;8968;-85
2023/07/01 02:24:11;;;;;;;;;7.75;7.75;;;;;;;;5057768;28;8849;-85
2023/07/01 02:26:38;;;;;;;;;2.50;2.50;;;;;;;;5063820;28;8885;-87
2023/07/01 02:29:05;;;;;;;;;9.75;8.25;;;;;;;;5058859;28;8854;-86
2023/07/01 02:31:32;;;;;;;;;8.25;8.25;;;;;;;;5070009;28;8810;-84
2023/07/01 02:34:02;;;;;;;;;7.75;7.75;;;;;;;;5051477;28;8858;-86
2023/07/01 02:36:30;;;;;;;;;9.25;8.00;;;;;;;;5044161;28;8922;-86
2023/07/01 02:38:59;;;;;;;;;7.75;7.75;;;;;;;;5050332;28;8885;-85
2023/07/01 02:41:26;;;;;;;;;6.00;6.00;;;;;;;;5051084;28;8897;-85
2023/07/01 02:43:53;;;;;;;;;6.25;6.25;;;;;;;;5051689;28;9007;-86
2023/07/01 02:46:21;;;;;;;;;6.75;6.75;;;;;;;;5051542;28;8858;-85
2023/07/01 02:48:48;;;;;;;;;8.00;8.00;;;;;;;;5050896;28;8869;-86
2023/07/01 02:51:17;;;;;;;;;8.75;7.75;;;;;;;;5052815;28;8954;-85
2023/07/01 02:53:45;;;;;;;;;8.00;6.50;;;;;;;;5059400;28;8969;-86
2023/07/01 02:56:12;;;;;;;;;3.75;2.50;;;;;;;;5053369;28;8873;-86
2023/07/01 02:58:40;;;;;;;;;6.50;6.50;;;;;;;;5050539;28;8853;-85
2023/07/01 03:01:07;;;;;;;;;5.75;5.75;;;;;;;;5049587;28;8825;-85
2023/07/01 03:03:35;;;;;;;;;7.00;7.00;;;;;;;;5051736;28;8864;-86
2023/07/01 03:06:02;;;;;;;;;7.25;7.25;;;;;;;;5048235;28;8932;-85
2023/07/01 03:08:31;;;;;;;;;8.50;7.25;;;;;;;;5049215;28;8893;-85
2023/07/01 03:10:59;;;;;;;;;6.75;6.75;;;;;;;;5057416;28;8865;-84
2023/07/01 03:13:26;;;;;;;;;8.25;8.25;;;;;;;;5053369;28;8873;-85
2023/07/01 03:15:55;;;;;;;;;5.75;5.75;;;;;;;;5060573;28;8861;-85
2023/07/01 03:18:23;;;;;;;;;6.00;6.00;;;;;;;;5041542;28;8870;-84
2023/07/01 03:20:50;;;;;;;;;7.00;6.00;;;;;;;;5049201;28;8845;-84
2023/07/01 03:23:19;;;;;;;;;11.50;8.25;;;;;;;;5049037;28;8853;-83
2023/07/01 03:25:48;;;;;;;;;6.00;6.00;;;;;;;;5048773;28;8872;-84
2023/07/01 03:28:15;;;;;;;;;2.25;2.25;;;;;;;;5052076;28;8865;-84
2023/07/01 03:30:46;;;;;;;;;7.25;7.25;;;;;;;;5054133;28;8779;-84
2023/07/01 03:33:13;;;;;;;;;10.00;8.25;;;;;;;;5050583;28;8881;-84
2023/07/01 03:35:43;;;;;;;;;7.75;7.75;;;;;;;;5059724;28;8856;-84
2023/07/01 03:38:13;;;;;;;;;8.50;7.00;;;;;;;;5049760;28;8850;-83
2023/07/01 03:40:43;;;;;;;;;10.75;9.25;;;;;;;;5050144;28;8864;-83
2023/07/01 03:43:12;;;;;;;;;9.50;8.75;;;;;;;;5052660;28;8940;-83
2023/07/01 03:45:41;;;;;;;;;7.75;7.75;;;;;;;;5063334;28;8893;-85
2023/07/01 03:48:08;;;;;;;;;9.00;9.00;;;;;;;;5055291;28;8889;-85
2023/07/01 03:50:36;;;;;;;;;8.25;8.25;;;;;;;;5062443;28;8950;-84
2023/07/01 03:53:03;;;;;;;;;6.00;6.00;;;;;;;;5060749;28;8868;-84
2023/07/01 03:55:33;;;;;;;;;6.50;6.50;;;;;;;;5059004;28;9009;-85
2023/07/01 03:58:01;;;;;;;;;8.50;8.50;;;;;;;;5062683;28;8854;-85
2023/07/01 04:00:30;;;;;;;;;8.75;7.50;;;;;;;;5047005;28;8748;-86
2023/07/01 04:03:05;;;;;;;;;8.00;7.25;;;;;;;;5053117;28;8943;-85
2023/07/01 04:05:34;;;;;;;;;7.00;7.00;;;;;;;;5060351;28;8843;-85
2023/07/01 04:08:02;;;;;;;;;7.25;7.25;;;;;;;;5050151;28;8853;-84
2023/07/01 04:10:31;;;;;;;;;6.75;6.75;;;;;;;;5063417;28;9005;-85
2023/07/01 04:13:00;;;;;;;;;6.00;6.00;;;;;;;;5056938;28;8873;-85
2023/07/01 04:15:46;;;;;;;;;9.75;7.25;;;;;;;;5053217;28;8859;-86
2023/07/01 04:18:13;;;;;;;;;5.50;5.50;;;;;;;;5066879;28;8867;-86
2023/07/01 04:20:43;;;;;;;;;6.25;5.25;;;;;;;;5068162;28;8931;-85
2023/07/01 04:23:11;;;;;;;;;4.75;4.50;;;;;;;;5064208;28;8974;-86
2023/07/01 04:25:39;;;;;;;;;4.00;4.00;;;;;;;;5059151;28;8946;-84
2023/07/01 04:28:10;;;;;;;;;8.00;4.75;;;;;;;;5065237;28;8857;-86
2023/07/01 04:30:44;;;;;;;;;4.00;4.00;;;;;;;;5059692;28;8762;-84
2023/07/01 04:33:11;;;;;;;;;6.75;4.75;;;;;;;;5053256;28;8864;-86
2023/07/01 04:35:38;;;;;;;;;5.00;5.00;;;;;;;;5056570;28;8881;-86
2023/07/01 04:38:06;;;;;;;;;4.50;4.00;;;;;;;;5052517;28;9486;-87
2023/07/01 04:40:33;;;;;;;;;5.50;4.25;;;;;;;;5053916;28;8870;-86
2023/07/01 04:43:01;;;;;;;;;4.50;4.50;;;;;;;;5053268;28;8947;-90
2023/07/01 04:45:33;;;;;;;;;3.00;3.00;;;;;;;;5051729;28;9672;-87
2023/07/01 04:48:01;;;;;;;;;2.25;2.25;;;;;;;;5051539;28;8865;-85
2023/07/01 04:50:33;;;;;;;;;3.25;3.25;;;;;;;;5053087;28;8865;-85
2023/07/01 04:53:03;;;;;;;;;3.50;3.50;;;;;;;;5053356;28;8873;-85
2023/07/01 04:55:30;;;;;;;;;4.25;3.75;;;;;;;;5053649;28;8881;-87
2023/07/01 04:57:57;;;;;;;;;3.25;3.25;;;;;;;;5065720;28;8843;-87
2023/07/01 05:00:25;;;;;;;;;3.00;3.00;;;;;;;;5067813;28;8916;-87
2023/07/01 05:02:52;;;;;;;;;3.00;2.75;;;;;;;;5064621;28;8843;-86
2023/07/01 05:05:21;;;;;;;;;1.50;1.50;;;;;;;;5062670;28;8882;-83
2023/07/01 05:07:48;;;;;;;;;1.75;1.75;;;;;;;;5067187;28;8858;-84
2023/07/01 05:10:19;;;;;;;;;2.25;2.25;;;;;;;;5048615;28;9756;-84
2023/07/01 05:12:49;;;;;;;;;3.50;3.50;;;;;;;;5057742;28;8875;-85
2023/07/01 05:15:18;;;;;;;;;2.00;2.00;;;;;;;;5056484;28;8869;-85
2023/07/01 05:17:48;;;;;;;;;1.75;1.75;;;;;;;;5053958;28;8865;-85
2023/07/01 05:20:18;;;;;;;;;1.25;1.25;;;;;;;;5052031;28;9026;-85
2023/07/01 05:22:49;;;;;;;;;1.75;1.75;;;;;;;;5056960;28;8873;-85
2023/07/01 05:25:18;;;;;;;;;2.00;2.00;;;;;;;;5060098;28;8858;-87
2023/07/01 05:27:45;;;;;;;;;3.00;3.00;;;;;;;;5060237;28;9616;-87
2023/07/01 05:30:13;;;;;;;;;2.00;2.00;;;;;;;;5051241;28;8861;-86
2023/07/01 05:32:50;;;;;;;;;1.75;1.75;;;;;;;;5051668;28;8845;-86
2023/07/01 05:35:31;;;;;;;;;0.25;0.25;;;;;;;;5051926;28;8857;-85
2023/07/01 05:38:19;;;;;;;;;2.75;2.75;;;;;;;;5043679;28;8880;-86
2023/07/01 05:40:49;;;;;;;;;0.75;0.75;;;;;;;;5046763;28;8845;-86
2023/07/01 05:43:17;;;;;;;;;1.75;1.75;;;;;;;;5051989;28;8897;-85
2023/07/01 05:45:44;;;;;;;;;3.00;1.75;;;;;;;;5052365;28;8935;-85
2023/07/01 05:48:14;;;;;;;;;0.75;0.75;;;;;;;;5051638;28;9012;-87
2023/07/01 05:50:42;;;;;;;;;2.25;2.25;;;;;;;;5051172;28;8988;-86
2023/07/01 05:53:10;;;;;;;;;2.00;2.00;;;;;;;;5052265;28;8861;-88
2023/07/01 05:55:38;;;;;;;;;1.00;1.00;;;;;;;;5050068;28;8863;-81
2023/07/01 05:58:06;;;;;;;;;1.00;1.00;;;;;;;;5055389;28;8979;-77
2023/07/01 06:00:35;;;;;;;;;1.00;1.00;;;;;;;;5054714;28;8789;-81
2023/07/01 06:03:02;;;;;;;;;3.75;3.75;;;;;;;;5048475;28;8892;-80
2023/07/01 06:05:29;;;;;;;;;1.75;1.75;;;;;;;;5051614;28;8857;-81
2023/07/01 06:07:56;;;;;;;;;2.00;2.00;;;;;;;;5051054;28;8861;-82
2023/07/01 06:10:24;;;;;;;;;1.00;1.00;;;;;;;;5050785;28;8980;-82
2023/07/01 06:12:52;;;;;;;;;1.00;1.00;;;;;;;;5051881;28;8869;-82
2023/07/01 06:15:19;;;;;;;;;1.00;1.00;;;;;;;;5056503;28;8865;-81
2023/07/01 06:17:47;;;;;;;;;1.00;1.00;;;;;;;;5050678;28;8877;-75
2023/07/01 06:20:14;;;;;;;;;1.00;1.00;;;;;;;;5044512;28;8875;-82
2023/07/01 06:22:41;;;;;;;;;1.00;1.00;;;;;;;;5049723;28;8869;-76
2023/07/01 06:25:10;;;;;;;;;0.00;0.00;;;;;;;;5050969;28;8853;-79
2023/07/01 06:27:37;;;;;;;;;0.00;0.00;;;;;;;;5050368;28;8861;-76
2023/07/01 06:30:12;;;;;;;;;0.75;0.75;;;;;;;;5053937;28;8841;-80
2023/07/01 06:32:40;;;;;;;;;0.50;0.50;;;;;;;;5046685;28;9645;-82
2023/07/01 06:35:08;;;;;;;;;0.50;0.50;;;;;;;;5053960;28;8884;-87
2023/07/01 06:37:35;;;;;;;;;0.75;0.75;;;;;;;;5050663;28;8861;-80
2023/07/01 06:40:03;;;;;;;;;0.00;0.00;;;;;;;;5051165;28;9029;-89
2023/07/01 06:42:30;;;;;;;;;1.00;0.75;;;;;;;;5051388;28;8854;-86
2023/07/01 06:44:57;;;;;;;;;1.00;1.00;;;;;;;;5054059;28;9327;-88
2023/07/01 06:47:26;;;;;;;;;1.00;1.00;;;;;;;;5063299;28;8877;-83
2023/07/01 06:49:53;;;;;;;;;1.50;0.50;;;;;;;;5052816;28;8862;-84
2023/07/01 06:52:20;;;;;;;;;0.75;0.75;;;;;;;;5054165;28;9004;-83
2023/07/01 06:54:47;;;;;;;;;1.00;1.00;;;;;;;;5054577;28;8923;-86
2023/07/01 06:57:15;;;;;;;;;2.00;0.50;;;;;;;;5053831;28;8968;-78
2023/07/01 06:59:42;;;;;;;;;1.00;1.00;;;;;;;;5056578;28;8855;-85
2023/07/01 07:02:09;;;;;;;;;0.50;0.50;;;;;;;;5056095;28;8817;-81
2023/07/01 07:04:38;;;;;;;;;0.75;0.75;;;;;;;;5050832;28;8860;-78
2023/07/01 07:07:06;;;;;;;;;1.50;1.50;;;;;;;;5049902;28;8865;-77
2023/07/01 07:09:33;;;;;;;;;1.50;1.00;;;;;;;;5040922;28;8908;-86
2023/07/01 07:12:00;;;;;;;;;0.00;0.00;;;;;;;;5048918;28;8884;-85
2023/07/01 07:14:27;;;;;;;;;1.00;1.00;;;;;;;;5051801;28;8860;-80
2023/07/01 07:16:54;;;;;;;;;1.00;1.00;;;;;;;;5062102;28;8863;-81
2023/07/01 07:19:22;;;;;;;;;1.00;1.00;;;;;;;;5042369;28;8875;-85
2023/07/01 07:21:50;;;;;;;;;1.80;0.00;;;;;;;;5053390;28;8849;-76
2023/07/01 07:24:18;;;;;;;;;0.20;0.20;;;;;;;;5052041;28;8849;-79
2023/07/01 07:26:55;;;;;;;;;1.00;1.00;;;;;;;;5054225;28;8871;-81
2023/07/01 07:29:22;;;;;;;;;1.00;1.00;;;;;;;;5046946;28;8872;-81
2023/07/01 07:31:50;;;;;;;;;0.40;0.40;;;;;;;;5052115;28;8807;-81
2023/07/01 07:34:17;;;;;;;;;3.75;2.00;;;;;;;;5053286;28;8861;-80
2023/07/01 07:36:44;;;;;;;;;1.75;1.75;;;;;;;;5049492;28;8862;-76
2023/07/01 07:39:13;;;;;;;;;1.80;1.80;;;;;;;;5047655;28;9036;-76
2023/07/01 07:41:43;;;;;;;;;1.50;1.50;;;;;;;;5052927;28;8880;-81
2023/07/01 07:44:14;;;;;;;;;0.75;0.75;;;;;;;;5050072;28;9726;-83
2023/07/01 07:46:42;;;;;;;;;1.00;1.00;;;;;;;;5047443;28;8864;-79
2023/07/01 07:49:10;;;;;;;;;1.00;1.00;;;;;;;;5048550;28;8853;-87
2023/07/01 07:51:38;;;;;;;;;1.80;1.80;;;;;;;;5047284;28;9636;-77
2023/07/01 07:54:05;;;;;;;;;1.00;1.00;;;;;;;;5053757;28;9603;-80
2023/07/01 07:56:34;;;;;;;;;0.00;0.00;;;;;;;;5049414;28;8970;-83
2023/07/01 07:59:02;;;;;;;;;0.00;0.00;;;;;;;;5049474;28;8992;-81
2023/07/01 08:01:30;;;;;;;;;0.60;0.60;;;;;;;;5051308;28;8800;-84
2023/07/01 08:03:57;;;;;;;;;1.00;1.00;;;;;;;;5057148;28;8987;-87
2023/07/01 08:06:25;;;;;;;;;1.00;1.00;;;;;;;;5054221;28;8843;-79
2023/07/01 08:08:52;;;;;;;;;0.60;0.60;;;;;;;;5054616;28;8987;-80
2023/07/01 08:11:19;;;;;;;;;0.40;0.40;;;;;;;;5058248;28;8870;-81
2023/07/01 08:13:48;;;;;;;;;1.40;1.40;;;;;;;;5059388;28;8865;-79
2023/07/01 08:16:16;;;;;;;;;1.00;1.00;;;;;;;;5060825;28;8978;-88
2023/07/01 08:18:43;;;;;;;;;1.40;1.40;;;;;;;;5072127;28;9005;-84
2023/07/01 08:21:13;;;;;;;;;9.80;8.40;;;;;;;;5054435;28;8873;-84
2023/07/01 08:23:43;;;;;;;;;11.00;11.00;;;;;;;;5057204;28;9684;-82
2023/07/01 08:26:13;;;;;;;;;0.00;0.00;;;;;;;;5065543;28;8984;-91
2023/07/01 08:28:40;;;;;;;;;0.80;0.80;;;;;;;;5063672;28;8869;-84
2023/07/01 08:31:09;;;;;;;;;1.00;1.00;;;;;;;;5058149;28;8829;-82
2023/07/01 08:33:36;;;;;;;;;0.00;0.00;;;;;;;;5049324;28;8882;-85
2023/07/01 08:36:04;;;;;;;;;0.00;0.00;;;;;;;;5060509;28;8859;-82
2023/07/01 08:38:31;;;;;;;;;0.60;0.60;;;;;;;;5056520;28;8855;-80
2023/07/01 08:41:03;;;;;;;;;0.00;0.00;;;;;;;;5055301;28;8869;-85
2023/07/01 08:43:31;;;;;;;;;0.00;0.00;;;;;;;;5049758;28;9643;-85
2023/07/01 08:46:03;;;;;;;;;0.60;0.60;;;;;;;;5054306;28;8920;-82
2023/07/01 08:48:33;;;;;;;;;2.00;2.00;;;;;;;;5052850;28;8938;-81
2023/07/01 08:51:04;;;;;;;;;2.00;2.00;;;;;;;;5051927;28;8870;-86
2023/07/01 08:53:32;;;;;;;;;1.20;1.00;;;;;;;;5045909;28;8981;-87
2023/07/01 08:55:59;;;;;;;;;1.60;1.60;;;;;;;;5055703;28;8873;-86
2023/07/01 08:58:30;;;;;;;;;2.00;2.00;;;;;;;;5054935;28;8826;-89
2023/07/01 09:00:58;;;;;;;;;1.40;1.40;;;;;;;;5053147;28;8940;-85
2023/07/01 09:03:26;;;;;;;;;1.60;1.60;;;;;;;;5051501;28;8868;-87
2023/07/01 09:05:55;;;;;;;;;3.00;3.00;;;;;;;;5057935;28;8877;-84
2023/07/01 09:08:22;;;;;;;;;2.00;2.00;;;;;;;;5050762;28;8878;-83
2023/07/01 09:10:50;;;;;;;;;3.00;3.00;;;;;;;;5048956;28;8964;-84
2023/07/01 09:13:17;;;;;;;;;3.00;3.00;;;;;;;;5054118;28;8849;-81
2023/07/01 09:15:46;;;;;;;;;3.80;2.80;;;;;;;;5044315;28;8872;-92
2023/07/01 09:18:21;;;;;;;;;2.80;2.80;;;;;;;;5052074;28;8982;-88
2023/07/01 09:20:49;;;;;;;;;3.80;3.80;;;;;;;;5052754;28;8842;-87
2023/07/01 09:23:32;;;;;;;;;2.20;2.20;;;;;;;;5048426;28;8884;-82
2023/07/01 09:26:17;;;;;;;;;3.60;3.00;;;;;;;;5052937;28;8873;-83
2023/07/01 09:28:45;;;;;;;;;4.00;4.00;;;;;;;;5043322;28;8978;-86
2023/07/01 09:31:15;;;;;;;;;3.00;3.00;;;;;;;;5053757;28;8928;-83
2023/07/01 09:34:01;;;;;;;;;1.80;1.80;;;;;;;;5051985;28;9026;-81
2023/07/01 09:36:30;;;;;;;;;2.00;2.00;;;;;;;;5051527;28;8931;-86
2023/07/01 09:39:01;;;;;;;;;0.20;0.20;;;;;;;;5051300;28;8916;-81
2023/07/01 09:41:28;;;;;;;;;0.40;0.40;;;;;;;;5051184;28;8891;-82
2023/07/01 09:43:57;;;;;;;;;0.80;0.00;;;;;;;;5052571;28;8923;-83
2023/07/01 09:46:26;;;;;;;;;0.00;0.00;;;;;;;;5050571;28;8876;-83
2023/07/01 09:48:55;;;;;;;;;0.00;0.00;;;;;;;;5052194;28;8845;-82
2023/07/01 09:51:24;;;;;;;;;0.00;0.00;;;;;;;;5050310;28;8991;-77
2023/07/01 09:53:52;;;;;;;;;0.00;0.00;;;;;;;;5050830;28;8861;-77
2023/07/01 09:56:21;;;;;;;;;0.00;0.00;;;;;;;;5052782;28;8854;-83
2023/07/01 09:58:50;;;;;;;;;0.00;0.00;;;;;;;;5050541;28;8850;-83
2023/07/01 10:01:19;;;;;;;;;1.20;0.00;;;;;;;;5052754;28;8847;-84
2023/07/01 10:03:47;;;;;;;;;0.80;0.80;;;;;;;;5051945;28;8894;-83
2023/07/01 10:06:14;;;;;;;;;1.00;1.00;;;;;;;;5054252;28;8972;-84
2023/07/01 10:08:43;;;;;;;;;1.00;1.00;;;;;;;;5053185;28;9012;-82
2023/07/01 10:11:23;;;;;;;;;0.00;0.00;;;;;;;;5053345;28;8861;-82
2023/07/01 10:13:53;;;;;;;;;2.00;1.00;;;;;;;;5053363;28;8845;-82
2023/07/01 10:16:21;;;;;;;;;0.00;0.00;;;;;;;;5055134;28;8873;-80
2023/07/01 10:18:48;;;;;;;;;1.00;1.00;;;;;;;;5053813;28;9634;-85
2023/07/01 10:21:30;;;;;;;;;7.00;7.00;;;;;;;;5049225;28;8970;-81
2023/07/01 10:23:58;;;;;;;;;3.80;3.80;;;;;;;;5052418;28;8877;-83
2023/07/01 10:26:38;;;;;;;;;11.00;11.00;;;;;;;;5061450;28;8853;-84
2023/07/01 10:29:41;;;;;;;;;1.00;1.00;;;;;;;;5062724;28;8853;-82
2023/07/01 10:32:34;;;;;;;;;0.00;0.00;;;;;;;;5056562;28;8819;-82
2023/07/01 10:35:11;;;;;;;;;0.00;0.00;;;;;;;;5042464;28;8941;-84
2023/07/01 10:37:38;;;;;;;;;0.00;0.00;;;;;;;;5039717;28;8849;-89
2023/07/01 10:40:44;;;;;;;;;0.00;0.00;;;;;;;;5050532;28;8873;-82
2023/07/01 10:43:27;;;;;;;;;0.00;0.00;;;;;;;;5050878;28;8845;-82
2023/07/01 10:46:13;;;;;;;;;1.00;1.00;;;;;;;;5050104;28;8868;-83
2023/07/01 10:48:42;;;;;;;;;2.00;2.00;;;;;;;;5053183;28;8881;-83
2023/07/01 10:51:13;;;;;;;;;1.60;1.60;;;;;;;;5053680;28;8853;-89
2023/07/01 10:53:59;;;;;;;;;3.60;2.60;;;;;;;;5047691;28;8862;-87
2023/07/01 10:56:27;;;;;;;;;2.40;2.40;;;;;;;;5046011;28;8842;-88
2023/07/01 10:59:22;;;;;;;;;3.00;3.00;;;;;;;;5062394;28;8865;-87
2023/07/01 11:01:50;;;;;;;;;2.20;2.20;;;;;;;;5053130;28;8820;-86
2023/07/01 11:04:18;;;;;;;;;3.00;3.00;;;;;;;;5053895;28;8881;-93
2023/07/01 11:06:49;;;;;;;;;5.80;4.80;;;;;;;;5048238;28;8814;-93
2023/07/01 11:09:27;;;;;;;;;3.00;3.00;;;;;;;;5051763;28;8865;-86
2023/07/01 11:11:54;;;;;;;;;2.00;2.00;;;;;;;;5050720;28;8864;-85
2023/07/01 11:14:31;;;;;;;;;3.00;3.00;;;;;;;;5064508;28;8858;-88
2023/07/01 11:17:06;;;;;;;;;1.80;1.80;;;;;;;;5067612;28;8883;-87
2023/07/01 11:19:34;;;;;;;;;2.00;2.00;;;;;;;;5056785;28;8835;-88
2023/07/01 11:22:01;;;;;;;;;1.80;1.80;;;;;;;;5054376;28;8877;-86
2023/07/01 11:24:29;;;;;;;;;1.00;1.00;;;;;;;;5054142;28;8949;-89
2023/07/01 11:27:02;;;;;;;;;1.00;1.00;;;;;;;;5056700;28;8878;-85
2023/07/01 11:29:31;;;;;;;;;0.00;0.00;;;;;;;;5055669;28;8873;-86
2023/07/01 11:32:00;;;;;;;;;4.00;2.40;;;;;;;;5051940;28;8806;-85
2023/07/01 11:34:27;;;;;;;;;1.80;1.80;;;;;;;;5057203;28;9011;-94
2023/07/01 11:36:55;;;;;;;;;1.20;1.20;;;;;;;;5056005;28;8861;-75
2023/07/01 11:39:23;;;;;;;;;2.60;2.60;;;;;;;;5056536;28;8960;-89
2023/07/01 11:41:54;;;;;;;;;2.60;2.60;;;;;;;;5054896;28;8969;-91
2023/07/01 11:44:23;;;;;;;;;3.00;3.00;;;;;;;;5054172;28;8960;-84
2023/07/01 11:46:53;;;;;;;;;2.00;1.60;;;;;;;;5050463;28;8858;-78
2023/07/01 11:49:25;;;;;;;;;2.80;2.80;;;;;;;;5051507;28;8819;-78
2023/07/01 11:51:54;;;;;;;;;2.80;2.60;;;;;;;;5054634;28;8835;-85
2023/07/01 11:54:22;;;;;;;;;3.00;3.00;;;;;;;;5053621;28;8850;-86
2023/07/01 11:56:50;;;;;;;;;2.00;2.00;;;;;;;;5059242;28;9721;-83
2023/07/01 11:59:30;;;;;;;;;2.20;2.00;;;;;;;;5057689;28;8879;-79
2023/07/01 12:01:59;;;;;;;;;2.00;2.00;;;;;;;;5045945;28;8818;-83
2023/07/01 12:04:27;;;;;;;;;1.60;0.80;;;;;;;;5049805;28;8841;-84
2023/07/01 12:07:07;;;;;;;;;0.80;0.80;;;;;;;;5063075;28;8851;-79
2023/07/01 12:09:34;;;;;;;;;1.00;1.00;;;;;;;;5049977;28;8861;-83
2023/07/01 12:12:02;;;;;;;;;1.60;1.60;;;;;;;;5048173;28;8907;-82
2023/07/01 12:14:29;;;;;;;;;0.00;0.00;;;;;;;;5050708;28;8869;-79
2023/07/01 12:16:58;;;;;;;;;1.20;0.00;;;;;;;;5049386;28;9011;-81
2023/07/01 12:19:26;;;;;;;;;0.00;0.00;;;;;;;;5052101;28;8849;-75
2023/07/01 12:21:54;;;;;;;;;0.00;0.00;;;;;;;;5055250;28;8862;-90
2023/07/01 12:24:23;;;;;;;;;0.60;0.60;;;;;;;;5052068;28;8889;-86
2023/07/01 12:26:51;;;;;;;;;0.00;0.00;;;;;;;;5051585;28;8849;-79
2023/07/01 12:29:19;;;;;;;;;0.00;0.00;;;;;;;;5050182;28;8869;-82
2023/07/01 12:31:46;;;;;;;;;0.80;0.80;;;;;;;;5053808;28;8825;-82
2023/07/01 12:34:15;;;;;;;;;0.80;0.80;;;;;;;;5051973;28;8861;-76
2023/07/01 12:36:44;;;;;;;;;0.00;0.00;;;;;;;;5050661;28;8850;-81
2023/07/01 12:39:12;;;;;;;;;0.00;0.00;;;;;;;;5058840;28;9005;-82
2023/07/01 12:41:42;;;;;;;;;3.20;0.40;;;;;;;;5054857;28;8867;-81
2023/07/01 12:44:13;;;;;;;;;1.00;1.00;;;;;;;;5051983;28;8999;-80
2023/07/01 12:46:43;;;;;;;;;0.00;0.00;;;;;;;;5052061;28;8859;-80
2023/07/01 12:49:14;;;;;;;;;1.00;1.00;;;;;;;;5051176;28;8865;-83
2023/07/01 12:51:44;;;;;;;;;0.20;0.20;;;;;;;;5052175;28;8909;-82
2023/07/01 12:54:11;;;;;;;;;1.00;1.00;;;;;;;;5051971;28;8846;-80
2023/07/01 12:56:40;;;;;;;;;0.00;0.00;;;;;;;;5070115;28;8870;-83
2023/07/01 12:59:08;;;;;;;;;1.00;1.00;;;;;;;;5059228;28;8830;-82
2023/07/01 13:01:35;;;;;;;;;1.00;1.00;;;;;;;;5052311;28;8922;-81
2023/07/01 13:04:02;;;;;;;;;2.00;2.00;;;;;;;;5051065;28;9705;-83
2023/07/01 13:06:31;;;;;;;;;3.00;3.00;;;;;;;;5051862;28;8951;-84
2023/07/01 13:09:01;;;;;;;;;3.00;3.00;;;;;;;;5051999;28;8960;-83
2023/07/01 13:11:33;;;;;;;;;1.60;1.60;;;;;;;;5048508;28;8945;-82
2023/07/01 13:14:02;;;;;;;;;3.80;2.40;;;;;;;;5058721;28;8857;-84
2023/07/01 13:16:31;;;;;;;;;2.00;2.00;;;;;;;;5053803;28;8885;-83
2023/07/01 13:19:01;;;;;;;;;0.80;0.80;;;;;;;;5054504;28;8949;-83
2023/07/01 13:21:29;;;;;;;;;2.80;1.80;;;;;;;;5052691;28;8869;-80
2023/07/01 13:23:56;;;;;;;;;0.80;0.80;;;;;;;;5063195;28;9625;-82
2023/07/01 13:26:29;;;;;;;;;2.00;2.00;;;;;;;;5059924;28;9629;-83
2023/07/01 13:28:57;;;;;;;;;2.00;2.00;;;;;;;;5054114;28;8865;-76
2023/07/01 13:31:25;;;;;;;;;1.00;1.00;;;;;;;;5049927;28;8781;-78
2023/07/01 13:33:56;;;;;;;;;1.80;1.80;;;;;;;;5049606;28;8849;-76
2023/07/01 13:36:24;;;;;;;;;1.80;1.80;;;;;;;;5050740;28;8858;-81
2023/07/01 13:38:51;;;;;;;;;2.00;2.00;;;;;;;;5051118;28;8845;-82
2023/07/01 13:41:26;;;;;;;;;1.00;1.00;;;;;;;;5062032;28;8862;-82
2023/07/01 13:44:00;;;;;;;;;0.80;0.80;;;;;;;;5055771;28;8843;-82
2023/07/01 13:46:33;;;;;;;;;0.80;0.80;;;;;;;;5054707;28;8853;-82
2023/07/01 13:49:00;;;;;;;;;1.00;1.00;;;;;;;;5049691;28;8881;-83
2023/07/01 13:51:33;;;;;;;;;2.20;0.40;;;;;;;;5050148;28;8883;-77
2023/07/01 13:54:00;;;;;;;;;0.20;0.20;;;;;;;;5059313;28;8879;-83
2023/07/01 13:56:29;;;;;;;;;2.20;2.20;;;;;;;;5066859;28;8843;-81
2023/07/01 13:58:57;;;;;;;;;1.00;0.20;;;;;;;;5058466;28;8987;-81
2023/07/01 14:01:24;;;;;;;;;0.20;0.20;;;;;;;;5062976;28;8836;-83
2023/07/01 14:03:53;;;;;;;;;1.40;1.40;;;;;;;;5051013;28;8878;-83
2023/07/01 14:06:21;;;;;;;;;1.00;1.00;;;;;;;;5064180;28;8877;-83
2023/07/01 14:08:49;;;;;;;;;0.20;0.20;;;;;;;;5062002;28;8870;-79
2023/07/01 14:11:23;;;;;;;;;0.20;0.20;;;;;;;;5053502;28;8845;-83
2023/07/01 14:13:53;;;;;;;;;0.20;0.20;;;;;;;;5053471;28;8931;-83
2023/07/01 14:16:23;;;;;;;;;0.20;0.20;;;;;;;;5053430;28;8865;-79
2023/07/01 14:18:51;;;;;;;;;2.20;0.40;;;;;;;;5065012;28;8901;-84
2023/07/01 14:21:19;;;;;;;;;1.20;1.20;;;;;;;;5051466;28;8913;-80
2023/07/01 14:23:54;;;;;;;;;0.80;0.80;;;;;;;;5051178;28;9577;-77
2023/07/01 14:26:26;;;;;;;;;1.00;1.00;;;;;;;;5050895;28;8892;-80
2023/07/01 14:28:54;;;;;;;;;0.20;0.20;;;;;;;;5052283;28;8972;-81
2023/07/01 14:31:29;;;;;;;;;2.20;1.80;;;;;;;;5050145;28;8825;-79
2023/07/01 14:33:59;;;;;;;;;0.20;0.20;;;;;;;;5051946;28;8876;-83
2023/07/01 14:36:28;;;;;;;;;1.20;1.20;;;;;;;;5049947;28;8936;-81
2023/07/01 14:38:56;;;;;;;;;2.40;2.40;;;;;;;;5050022;28;8914;-83
2023/07/01 14:41:25;;;;;;;;;4.60;2.80;;;;;;;;5049230;28;8868;-84
2023/07/01 14:43:55;;;;;;;;;2.60;2.60;;;;;;;;5048495;28;8850;-81
2023/07/01 14:46:23;;;;;;;;;3.80;3.80;;;;;;;;5050397;28;8877;-83
2023/07/01 14:48:51;;;;;;;;;3.60;3.60;;;;;;;;5050261;28;8885;-84
2023/07/01 14:51:18;;;;;;;;;3.20;3.20;;;;;;;;5061777;28;8881;-83
2023/07/01 14:53:47;;;;;;;;;3.80;3.80;;;;;;;;5050015;28;8865;-80
2023/07/01 14:56:16;;;;;;;;;3.40;3.40;;;;;;;;5061203;28;8859;-82
2023/07/01 14:58:43;;;;;;;;;3.20;2.20;;;;;;;;5050798;28;8854;-82
2023/07/01 15:01:12;;;;;;;;;4.00;4.00;;;;;;;;5059486;28;8818;-81
2023/07/01 15:03:40;;;;;;;;;5.20;4.00;;;;;;;;5049181;28;8944;-80
2023/07/01 15:06:07;;;;;;;;;4.60;4.60;;;;;;;;5035046;28;8883;-79
2023/07/01 15:08:34;;;;;;;;;4.40;4.40;;;;;;;;5048114;28;8892;-78
2023/07/01 15:11:02;;;;;;;;;3.00;3.00;;;;;;;;5056420;28;8859;-79